Time;durP1;ratioP1;P1;durP2;ratioP2;P2;SDS_P1;SDS_P2;PMS_P1;PMS_P2;Temp;Humidity;BMP_temperature;BMP_pressure;BME280_temperature;BME280_humidity;BME280_pressure;Samples;Min_cycle;Max_cycle;Signal;HPM_P1;HPM_P2
2022/12/26 00:02:00;;;;;;;80.43;15.70;;;7.70;99.90;;;;;;5088920;28;20048;-84
2022/12/26 00:04:27;;;;;;;93.22;15.30;;;7.60;99.90;;;;;;5072278;28;20047;-84
2022/12/26 00:06:54;;;;;;;56.08;14.13;;;7.60;99.90;;;;;;5089226;28;20516;-84
2022/12/26 00:09:20;;;;;;;117.65;15.95;;;7.60;99.90;;;;;;5088426;28;20104;-84
2022/12/26 00:11:47;;;;;;;92.80;15.40;;;7.60;99.90;;;;;;5092140;28;20040;-84
2022/12/26 00:14:15;;;;;;;109.13;15.43;;;7.70;99.90;;;;;;5092738;28;20036;-84
2022/12/26 00:16:44;;;;;;;139.98;16.83;;;7.70;99.90;;;;;;5125749;28;20036;-84
2022/12/26 00:19:11;;;;;;;132.95;16.75;;;7.70;99.90;;;;;;5128934;28;20498;-84
2022/12/26 00:21:38;;;;;;;134.50;17.23;;;7.70;99.90;;;;;;5112535;28;20096;-84
2022/12/26 00:24:05;;;;;;;97.05;16.65;;;7.60;99.90;;;;;;5076424;28;20123;-84
2022/12/26 00:26:34;;;;;;;125.82;17.33;;;7.70;99.90;;;;;;5059212;28;20052;-84
2022/12/26 00:29:02;;;;;;;90.00;15.25;;;7.60;99.90;;;;;;5092533;28;20143;-84
2022/12/26 00:31:31;;;;;;;70.05;14.85;;;7.70;99.90;;;;;;5075784;28;20122;-84
2022/12/26 00:33:59;;;;;;;51.15;13.73;;;7.60;99.90;;;;;;5092636;28;20037;-84
2022/12/26 00:36:29;;;;;;;63.38;14.70;;;7.60;99.90;;;;;;5092144;28;20128;-84
2022/12/26 00:38:58;;;;;;;184.40;19.05;;;7.60;99.90;;;;;;5092192;28;20479;-84
2022/12/26 00:41:25;;;;;;;148.90;18.15;;;7.70;99.90;;;;;;5092206;28;20047;-84
2022/12/26 00:43:51;;;;;;;65.68;14.65;;;7.70;99.90;;;;;;5103543;28;20036;-84
2022/12/26 00:46:18;;;;;;;190.50;19.40;;;7.60;99.90;;;;;;5063763;28;20046;-84
2022/12/26 00:48:46;;;;;;;134.40;18.67;;;7.60;99.90;;;;;;5108706;28;20119;-84
2022/12/26 00:51:13;;;;;;;176.75;19.48;;;7.60;99.90;;;;;;5075512;28;20035;-84
2022/12/26 00:53:39;;;;;;;220.32;20.48;;;7.60;99.90;;;;;;5075379;28;20040;-84
2022/12/26 00:56:07;;;;;;;133.90;19.13;;;7.60;99.90;;;;;;5075516;28;20508;-84
2022/12/26 00:58:34;;;;;;;167.05;19.23;;;7.70;99.90;;;;;;5075086;28;20037;-84
2022/12/26 01:01:16;;;;;;;143.35;19.08;;;7.60;99.90;;;;;;5092280;28;20040;-84
2022/12/26 01:03:44;;;;;;;173.38;19.50;;;7.70;99.90;;;;;;5112864;28;20546;-84
2022/12/26 01:06:11;;;;;;;121.57;17.92;;;7.70;99.90;;;;;;5095808;28;20083;-84
2022/12/26 01:08:38;;;;;;;119.00;17.73;;;7.70;99.90;;;;;;5128513;28;20122;-83
2022/12/26 01:11:08;;;;;;;108.35;17.50;;;7.70;99.90;;;;;;5112217;28;20079;-84
2022/12/26 01:13:35;;;;;;;100.10;16.77;;;7.70;99.90;;;;;;5128764;28;20043;-84
2022/12/26 01:16:03;;;;;;;96.35;17.25;;;7.70;99.90;;;;;;5095498;28;20036;-84
2022/12/26 01:18:30;;;;;;;86.57;16.95;;;7.70;99.90;;;;;;5095261;28;20471;-84
2022/12/26 01:21:03;;;;;;;88.50;15.93;;;7.70;99.90;;;;;;5095239;28;20082;-83
2022/12/26 01:23:30;;;;;;;104.15;18.27;;;7.70;99.90;;;;;;5128336;28;20392;-84
2022/12/26 01:25:57;;;;;;;118.88;18.63;;;7.70;99.90;;;;;;5078688;28;20043;-84
2022/12/26 01:28:23;;;;;;;91.97;17.20;;;7.70;99.90;;;;;;5078262;28;20036;-84
2022/12/26 01:30:50;;;;;;;76.47;16.45;;;7.70;99.90;;;;;;5090263;28;20037;-84
2022/12/26 01:33:17;;;;;;;83.70;15.93;;;7.70;99.90;;;;;;5091452;28;20067;-84
2022/12/26 01:35:51;;;;;;;70.45;16.00;;;7.70;99.90;;;;;;5094464;28;20047;-84
2022/12/26 01:38:19;;;;;;;90.55;16.98;;;7.70;99.90;;;;;;5111594;28;20543;-84
2022/12/26 01:40:47;;;;;;;63.95;15.75;;;7.70;99.90;;;;;;5080224;28;20036;-84
2022/12/26 01:43:15;;;;;;;69.15;16.05;;;7.70;99.90;;;;;;5091147;28;20409;-84
2022/12/26 01:45:48;;;;;;;63.60;14.55;;;7.70;99.90;;;;;;5090947;28;20041;-84
2022/12/26 01:48:24;;;;;;;54.00;14.30;;;7.70;99.90;;;;;;5107732;28;20479;-84
2022/12/26 01:50:56;;;;;;;73.72;14.13;;;7.70;99.90;;;;;;5110526;28;20040;-84
2022/12/26 01:53:31;;;;;;;54.03;14.32;;;7.70;99.90;;;;;;5096107;28;20062;-84
2022/12/26 01:56:05;;;;;;;44.38;13.18;;;7.70;99.90;;;;;;5090602;28;20060;-84
2022/12/26 01:58:40;;;;;;;50.05;13.73;;;7.70;99.90;;;;;;5091040;28;20048;-84
2022/12/26 02:01:09;;;;;;;59.38;12.95;;;7.70;99.90;;;;;;5091146;28;20412;-84
2022/12/26 02:06:23;;;;;;;49.10;13.23;;;7.70;99.90;;;;;;5107536;28;20143;-84
2022/12/26 02:08:50;;;;;;;49.20;13.23;;;7.70;99.90;;;;;;5073621;28;20044;-84
2022/12/26 02:11:32;;;;;;;65.85;14.55;;;7.70;99.90;;;;;;5078646;28;20503;-83
2022/12/26 02:14:00;;;;;;;39.78;12.85;;;7.70;99.90;;;;;;5090360;28;20067;-84
2022/12/26 02:16:27;;;;;;;43.90;12.82;;;7.70;99.90;;;;;;5090533;28;20076;-84
2022/12/26 02:18:54;;;;;;;40.38;12.75;;;7.70;99.90;;;;;;5073826;28;20036;-84
2022/12/26 02:21:51;;;;;;;44.42;11.88;;;7.80;99.90;;;;;;5096159;28;20101;-84
2022/12/26 02:24:26;;;;;;;52.90;12.05;;;7.70;99.90;;;;;;5127268;28;20074;-84
2022/12/26 02:27:23;;;;;;;36.22;12.38;;;7.80;99.90;;;;;;5109686;28;20047;-83
2022/12/26 02:30:06;;;;;;;44.55;12.30;;;7.80;99.90;;;;;;5109789;28;20036;-83
2022/12/26 02:33:20;;;;;;;43.13;12.07;;;7.70;99.90;;;;;;5110133;28;20040;-83
2022/12/26 02:36:04;;;;;;;49.72;12.65;;;7.80;99.90;;;;;;5032235;28;20045;-83
2022/12/26 02:38:52;;;;;;;40.20;11.98;;;7.80;99.90;;;;;;5033038;28;20041;-83
2022/12/26 02:41:22;;;;;;;39.40;12.18;;;7.80;99.90;;;;;;5088809;28;20048;-83
2022/12/26 02:47:29;;;;;;;32.08;11.43;;;7.80;99.90;;;;;;5126659;28;20165;-83
2022/12/26 03:13:22;;;;;;;27.08;9.82;;;7.80;99.90;;;;;;5108128;28;20040;-83
2022/12/26 03:18:59;;;;;;;24.75;8.60;;;7.80;99.90;;;;;;5105562;28;20101;-83
2022/12/26 03:21:32;;;;;;;24.00;9.15;;;7.70;99.90;;;;;;5089022;28;20047;-83
2022/12/26 03:23:59;;;;;;;24.98;9.63;;;7.80;99.90;;;;;;5105339;28;20036;-83
2022/12/26 03:26:42;;;;;;;29.45;9.27;;;7.80;99.90;;;;;;5072788;28;20790;-83
2022/12/26 03:32:11;;;;;;;23.48;8.70;;;7.70;99.90;;;;;;5091718;28;20053;-84
2022/12/26 03:34:42;;;;;;;23.50;8.68;;;7.80;99.90;;;;;;5089680;28;20047;-83
2022/12/26 03:37:36;;;;;;;25.52;9.18;;;7.80;99.90;;;;;;5072419;28;20101;-83
2022/12/26 04:19:24;;;;;;;29.42;12.85;;;8.00;99.90;;;;;;5132408;28;20059;-83
2022/12/26 04:44:34;;;;;;;39.45;15.70;;;8.00;99.90;;;;;;5097856;28;20101;-84
2022/12/26 04:47:01;;;;;;;35.78;15.50;;;8.10;99.90;;;;;;5084514;28;20419;-83
2022/12/26 04:52:14;;;;;;;42.50;16.80;;;8.10;99.90;;;;;;5097589;28;20040;-83
2022/12/26 04:54:41;;;;;;;43.05;16.95;;;8.10;99.90;;;;;;5095173;28;20056;-84
2022/12/26 04:57:09;;;;;;;37.70;16.58;;;8.10;99.90;;;;;;5102631;28;20032;-83
2022/12/26 04:59:36;;;;;;;35.65;16.85;;;8.10;99.90;;;;;;5116903;28;20093;-83
2022/12/26 05:10:24;;;;;;;37.58;17.95;;;8.10;99.90;;;;;;5128621;28;20040;-83
2022/12/26 05:12:52;;;;;;;43.78;17.60;;;8.10;99.90;;;;;;5111974;28;20043;-83
2022/12/26 05:15:20;;;;;;;43.20;19.02;;;8.00;99.90;;;;;;5111797;28;20492;-83
2022/12/26 05:29:05;;;;;;;32.63;16.27;;;8.10;99.90;;;;;;5107671;28;20082;-83
2022/12/26 05:31:32;;;;;;;34.67;17.75;;;8.10;99.90;;;;;;5058314;28;20484;-83
2022/12/26 05:34:11;;;;;;;37.03;17.58;;;8.10;99.90;;;;;;5091735;28;20545;-83
2022/12/26 05:36:48;;;;;;;35.13;17.52;;;8.10;99.90;;;;;;5091289;28;20067;-83
2022/12/26 05:39:15;;;;;;;33.88;16.33;;;8.10;99.90;;;;;;5091039;28;20067;-83
2022/12/26 05:41:42;;;;;;;33.30;17.55;;;8.10;99.90;;;;;;5091372;28;20044;-84
2022/12/26 05:44:09;;;;;;;30.80;16.38;;;8.10;99.90;;;;;;5128068;28;20039;-83
2022/12/26 05:46:37;;;;;;;35.38;17.55;;;8.10;99.90;;;;;;5101899;28;20044;-83
2022/12/26 05:49:05;;;;;;;28.80;17.30;;;8.20;99.90;;;;;;5102711;28;20063;-84
2022/12/26 05:51:32;;;;;;;29.90;17.15;;;8.20;99.90;;;;;;5131606;28;20454;-83
2022/12/26 05:53:59;;;;;;;30.30;17.25;;;8.20;99.90;;;;;;5131568;28;20093;-83
2022/12/26 05:56:26;;;;;;;28.35;16.85;;;8.20;99.90;;;;;;5088376;28;20128;-84
2022/12/26 05:58:58;;;;;;;27.20;15.95;;;8.20;99.90;;;;;;5091367;28;20470;-83
2022/12/26 06:01:26;;;;;;;30.90;16.98;;;8.10;99.90;;;;;;5110726;28;20119;-83
2022/12/26 06:03:55;;;;;;;30.30;16.30;;;8.10;99.90;;;;;;5111099;28;20044;-83
2022/12/26 06:06:23;;;;;;;26.73;15.43;;;8.10;99.90;;;;;;5124889;28;20569;-84
2022/12/26 06:08:51;;;;;;;26.48;16.02;;;8.00;99.90;;;;;;5096189;28;20093;-84
2022/12/26 06:11:19;;;;;;;26.75;14.93;;;8.00;99.90;;;;;;5117008;28;20032;-83
2022/12/26 06:13:45;;;;;;;27.33;15.20;;;8.00;99.90;;;;;;5073864;28;20090;-83
2022/12/26 06:16:14;;;;;;;26.58;16.15;;;8.00;99.90;;;;;;5073523;28;20040;-84
2022/12/26 06:18:41;;;;;;;32.88;15.82;;;8.00;99.90;;;;;;5124469;28;20052;-84
2022/12/26 06:21:13;;;;;;;28.63;15.95;;;8.00;99.90;;;;;;5110538;28;20044;-83
2022/12/26 06:23:40;;;;;;;26.98;15.55;;;8.00;99.90;;;;;;5110443;28;20693;-83
2022/12/26 06:26:09;;;;;;;26.70;15.32;;;8.00;99.90;;;;;;5094217;28;20035;-84
2022/12/26 06:28:36;;;;;;;27.42;16.15;;;8.00;99.90;;;;;;5125510;28;20561;-83
2022/12/26 06:31:09;;;;;;;26.52;14.95;;;8.00;99.90;;;;;;5110656;28;20097;-84
2022/12/26 06:33:36;;;;;;;27.33;15.82;;;8.10;99.90;;;;;;5127041;28;20582;-83
2022/12/26 06:36:12;;;;;;;30.08;15.60;;;8.00;99.90;;;;;;5110553;28;20480;-83
2022/12/26 06:38:39;;;;;;;27.60;15.38;;;8.10;99.90;;;;;;5110219;28;20052;-83
2022/12/26 06:41:08;;;;;;;24.45;15.00;;;8.10;99.90;;;;;;5110514;28;20032;-83
2022/12/26 06:43:35;;;;;;;25.90;14.23;;;8.10;99.90;;;;;;5109894;28;20035;-83
2022/12/26 06:46:03;;;;;;;30.75;15.32;;;8.10;99.90;;;;;;5077206;28;20043;-83
2022/12/26 06:48:31;;;;;;;25.05;15.52;;;8.10;99.90;;;;;;5126065;28;20039;-83
2022/12/26 06:51:03;;;;;;;25.17;14.68;;;8.10;99.90;;;;;;5126884;28;20043;-83
2022/12/26 06:53:29;;;;;;;27.08;14.82;;;8.10;99.90;;;;;;5110210;28;20040;-83
2022/12/26 06:56:09;;;;;;;27.67;14.80;;;8.10;99.90;;;;;;5126961;28;20047;-83
2022/12/26 06:58:36;;;;;;;29.50;16.02;;;8.10;99.90;;;;;;5122531;28;20052;-83
2022/12/26 07:01:12;;;;;;;25.38;14.82;;;8.10;99.90;;;;;;5089769;28;20489;-83
2022/12/26 07:03:39;;;;;;;25.25;15.00;;;8.10;99.90;;;;;;5089444;28;20680;-83
2022/12/26 07:06:12;;;;;;;27.27;15.18;;;8.10;99.90;;;;;;5073283;28;20173;-83
2022/12/26 07:08:38;;;;;;;27.77;15.13;;;8.10;99.90;;;;;;5090317;28;20037;-83
2022/12/26 07:11:15;;;;;;;29.45;16.33;;;8.10;99.90;;;;;;5076550;28;20040;-83
2022/12/26 07:13:42;;;;;;;27.40;15.38;;;8.10;99.90;;;;;;5109257;28;20040;-83
2022/12/26 07:16:10;;;;;;;25.50;15.02;;;8.10;99.90;;;;;;5092803;28;20127;-83
2022/12/26 07:18:37;;;;;;;25.08;14.40;;;8.10;99.90;;;;;;5098422;28;20075;-83
2022/12/26 07:21:05;;;;;;;23.85;13.43;;;8.10;99.90;;;;;;5084193;28;20074;-83
2022/12/26 07:23:32;;;;;;;25.13;12.88;;;8.10;99.90;;;;;;5090018;28;20040;-83
2022/12/26 07:25:59;;;;;;;24.50;13.85;;;8.10;99.90;;;;;;5105857;28;20123;-83
2022/12/26 07:28:27;;;;;;;25.70;13.68;;;8.20;99.90;;;;;;5104517;28;20028;-83
2022/12/26 07:30:56;;;;;;;25.17;14.30;;;8.10;99.90;;;;;;5099184;28;20028;-83
2022/12/26 07:33:23;;;;;;;26.45;13.55;;;8.20;99.90;;;;;;5126639;28;20078;-84
2022/12/26 07:35:49;;;;;;;23.58;12.25;;;8.10;99.90;;;;;;5130076;28;20079;-83
2022/12/26 07:38:16;;;;;;;22.73;13.38;;;8.20;99.90;;;;;;5096506;28;20036;-83
2022/12/26 07:40:43;;;;;;;20.52;12.35;;;8.20;99.90;;;;;;5100534;28;20041;-85
2022/12/26 07:43:10;;;;;;;23.23;12.43;;;8.20;99.90;;;;;;5091910;28;20048;-83
2022/12/26 07:45:37;;;;;;;23.25;12.77;;;8.20;99.90;;;;;;5093544;28;20043;-83
2022/12/26 07:48:03;;;;;;;25.85;13.23;;;8.20;99.90;;;;;;5089217;28;20100;-83
2022/12/26 07:50:30;;;;;;;21.13;12.75;;;8.20;99.90;;;;;;5088329;28;20072;-82
2022/12/26 07:52:58;;;;;;;19.38;11.32;;;8.20;99.90;;;;;;5097685;28;20111;-83
2022/12/26 07:55:25;;;;;;;21.85;11.10;;;8.20;99.90;;;;;;5092264;28;20514;-83
2022/12/26 07:57:52;;;;;;;20.13;10.77;;;8.20;99.90;;;;;;5093292;28;20036;-83
2022/12/26 08:00:19;;;;;;;18.77;10.52;;;8.20;99.90;;;;;;5092559;28;20044;-83
2022/12/26 08:02:48;;;;;;;18.67;10.05;;;8.20;99.90;;;;;;5088924;28;20101;-83
2022/12/26 08:05:16;;;;;;;21.05;9.65;;;8.30;99.90;;;;;;5076579;28;20044;-83
2022/12/26 08:07:45;;;;;;;19.05;9.73;;;8.30;99.90;;;;;;5125750;28;20043;-83
2022/12/26 08:10:11;;;;;;;17.23;9.10;;;8.30;99.90;;;;;;5116834;28;20110;-83
2022/12/26 08:12:38;;;;;;;15.45;8.75;;;8.30;99.90;;;;;;5075567;28;20185;-83
2022/12/26 08:15:05;;;;;;;16.35;8.93;;;8.40;99.90;;;;;;5072385;28;20065;-83
2022/12/26 08:17:32;;;;;;;16.00;8.63;;;8.40;99.90;;;;;;5090579;28;20048;-83
2022/12/26 08:19:58;;;;;;;17.67;9.38;;;8.40;99.90;;;;;;5118991;28;20044;-83
2022/12/26 08:22:26;;;;;;;17.33;9.10;;;8.40;99.90;;;;;;5119506;28;20515;-83
2022/12/26 08:24:53;;;;;;;16.25;9.30;;;8.40;99.90;;;;;;5112732;28;20039;-83
2022/12/26 08:27:19;;;;;;;14.75;9.45;;;8.40;99.90;;;;;;5124598;28;20039;-85
2022/12/26 08:29:46;;;;;;;21.23;9.63;;;8.40;99.90;;;;;;5111987;28;20075;-85
2022/12/26 08:32:13;;;;;;;21.08;9.85;;;8.40;99.90;;;;;;5126910;28;20038;-83
2022/12/26 08:34:40;;;;;;;15.57;9.82;;;8.40;99.90;;;;;;5109790;28;20119;-83
2022/12/26 08:37:07;;;;;;;18.77;9.93;;;8.40;99.90;;;;;;5109487;28;20119;-84
2022/12/26 08:39:33;;;;;;;18.52;9.45;;;8.50;99.90;;;;;;5076154;28;20044;-83
2022/12/26 08:42:00;;;;;;;22.83;9.98;;;8.50;99.90;;;;;;5079458;28;20100;-81
2022/12/26 08:44:27;;;;;;;18.33;10.65;;;8.50;99.90;;;;;;5095754;28;20408;-84
2022/12/26 08:46:53;;;;;;;24.85;9.98;;;8.50;99.90;;;;;;5095628;28;20464;-83
2022/12/26 08:49:20;;;;;;;19.88;10.32;;;8.50;99.90;;;;;;5118527;28;20484;-84
2022/12/26 08:51:47;;;;;;;17.45;9.77;;;8.50;99.90;;;;;;5094620;28;20086;-84
2022/12/26 08:54:13;;;;;;;16.35;9.80;;;8.50;99.90;;;;;;5105051;28;20059;-84
2022/12/26 08:56:40;;;;;;;19.35;10.05;;;8.50;99.90;;;;;;5112493;28;20097;-84
2022/12/26 08:59:07;;;;;;;18.63;9.68;;;8.50;99.90;;;;;;5106989;28;20039;-84
2022/12/26 09:01:33;;;;;;;17.65;10.05;;;8.50;99.90;;;;;;5128867;28;20043;-84
2022/12/26 09:04:02;;;;;;;17.50;9.43;;;8.40;99.90;;;;;;5086165;28;20485;-84
2022/12/26 09:06:32;;;;;;;16.48;9.32;;;8.50;99.90;;;;;;5118897;28;20093;-82
2022/12/26 09:08:59;;;;;;;24.27;8.93;;;8.50;99.90;;;;;;5112368;28;20047;-82
2022/12/26 09:11:26;;;;;;;14.80;9.20;;;8.50;99.90;;;;;;5112736;28;20131;-83
2022/12/26 09:13:55;;;;;;;16.80;9.27;;;8.50;99.90;;;;;;5111446;28;20123;-82
2022/12/26 09:16:24;;;;;;;16.52;8.27;;;8.60;99.90;;;;;;5094290;28;20111;-83
2022/12/26 09:18:57;;;;;;;15.13;8.02;;;8.60;99.90;;;;;;5104682;28;20415;-83
2022/12/26 09:21:24;;;;;;;14.60;7.60;;;8.60;99.90;;;;;;5149604;28;20051;-84
2022/12/26 09:24:02;;;;;;;18.90;7.80;;;8.60;99.90;;;;;;5112150;28;20055;-82
2022/12/26 09:26:30;;;;;;;19.42;9.00;;;8.60;99.90;;;;;;5111928;28;20047;-82
2022/12/26 09:28:56;;;;;;;16.15;8.02;;;8.60;99.90;;;;;;5094946;28;20516;-84
2022/12/26 09:31:26;;;;;;;15.00;7.80;;;8.60;99.90;;;;;;5097947;28;20115;-84
2022/12/26 09:33:53;;;;;;;13.90;7.90;;;8.60;99.90;;;;;;5119874;28;20420;-83
2022/12/26 09:36:25;;;;;;;13.05;8.18;;;8.60;99.90;;;;;;5131434;28;20560;-83
2022/12/26 09:38:53;;;;;;;14.00;8.07;;;8.60;99.90;;;;;;5111655;28;20039;-83
2022/12/26 09:41:50;;;;;;;14.68;8.38;;;8.60;99.90;;;;;;5122795;28;20043;-83
2022/12/26 09:44:35;;;;;;;13.25;7.43;;;8.60;99.90;;;;;;5128145;28;20044;-83
2022/12/26 09:47:14;;;;;;;15.35;8.30;;;8.60;99.90;;;;;;5108483;28;20499;-83
2022/12/26 09:50:03;;;;;;;11.98;7.40;;;8.50;99.90;;;;;;5110565;28;20055;-83
2022/12/26 09:52:53;;;;;;;10.88;5.78;;;8.50;99.90;;;;;;5128970;28;20036;-83
2022/12/26 09:55:26;;;;;;;8.50;5.60;;;8.50;99.90;;;;;;5107202;28;20381;-83
2022/12/26 09:57:59;;;;;;;14.93;5.38;;;8.60;99.90;;;;;;5078454;28;20102;-83
2022/12/26 10:00:32;;;;;;;9.18;4.47;;;8.60;99.90;;;;;;5091137;28;20458;-83
2022/12/26 10:02:59;;;;;;;12.50;4.93;;;8.70;99.90;;;;;;5097052;28;20050;-83
2022/12/26 10:05:34;;;;;;;10.57;4.28;;;8.70;99.90;;;;;;5097873;28;20048;-83
2022/12/26 10:08:10;;;;;;;13.40;4.53;;;8.70;99.90;;;;;;5091430;28;20445;-83
2022/12/26 10:10:58;;;;;;;8.68;4.10;;;8.70;99.90;;;;;;5100937;28;20047;-84
2022/12/26 10:13:49;;;;;;;9.38;4.18;;;8.70;99.90;;;;;;5124542;28;20035;-83
2022/12/26 10:16:30;;;;;;;10.77;4.25;;;8.80;99.90;;;;;;5126753;28;20569;-84
2022/12/26 10:19:18;;;;;;;9.30;4.50;;;8.80;99.90;;;;;;5090511;28;20040;-82
2022/12/26 10:22:08;;;;;;;15.18;5.65;;;8.70;99.90;;;;;;5110763;28;20036;-85
2022/12/26 10:24:37;;;;;;;13.85;5.70;;;8.80;99.90;;;;;;5069558;28;20412;-85
2022/12/26 10:27:12;;;;;;;9.45;3.22;;;8.80;99.90;;;;;;5099377;28;20497;-84
2022/12/26 10:29:51;;;;;;;8.77;2.22;;;8.70;99.90;;;;;;5090026;28;20048;-85
2022/12/26 10:32:38;;;;;;;9.23;2.17;;;8.40;99.90;;;;;;5090245;28;20047;-84
2022/12/26 10:35:28;;;;;;;8.57;2.00;;;8.30;99.90;;;;;;5089800;28;20043;-84
2022/12/26 10:38:00;;;;;;;8.38;1.70;;;8.20;99.90;;;;;;5120223;28;20044;-85
2022/12/26 10:40:35;;;;;;;13.45;1.92;;;8.10;99.90;;;;;;5110352;28;20492;-84
2022/12/26 10:43:30;;;;;;;9.40;1.75;;;7.90;99.90;;;;;;5109709;28;20044;-84
2022/12/26 10:46:06;;;;;;;8.95;1.63;;;7.90;99.90;;;;;;5109986;28;20048;-84
2022/12/26 10:48:32;;;;;;;8.77;1.45;;;7.80;99.90;;;;;;5096421;28;20040;-84
2022/12/26 10:50:59;;;;;;;7.05;1.30;;;7.80;99.90;;;;;;5073149;28;20040;-84
2022/12/26 10:53:26;;;;;;;11.40;2.95;;;7.70;99.90;;;;;;5089851;28;20127;-84
2022/12/26 10:55:52;;;;;;;6.43;1.08;;;7.70;99.90;;;;;;5089244;28;20489;-83
2022/12/26 10:58:27;;;;;;;6.88;1.13;;;7.70;99.90;;;;;;5083988;28;20040;-84
2022/12/26 11:00:54;;;;;;;10.45;1.50;;;7.70;99.90;;;;;;5109785;28;20075;-84
2022/12/26 11:03:21;;;;;;;7.68;1.27;;;7.60;99.90;;;;;;5109036;28;20082;-84
2022/12/26 11:05:50;;;;;;;9.18;1.70;;;7.60;99.90;;;;;;5109870;28;20135;-84
2022/12/26 11:08:37;;;;;;;5.95;1.20;;;7.70;99.90;;;;;;5102026;28;20052;-84
2022/12/26 11:11:04;;;;;;;7.50;1.25;;;7.60;99.90;;;;;;5089276;28;20408;-84
2022/12/26 11:13:54;;;;;;;7.53;1.10;;;7.50;99.90;;;;;;5106140;28;20131;-84
2022/12/26 11:16:39;;;;;;;4.55;1.33;;;7.50;99.90;;;;;;5097520;28;20126;-84
2022/12/26 11:19:24;;;;;;;8.05;1.55;;;7.50;99.90;;;;;;5089393;28;20503;-84
2022/12/26 11:21:51;;;;;;;6.32;1.20;;;7.50;99.90;;;;;;5106529;28;20083;-84
2022/12/26 11:24:19;;;;;;;5.65;1.98;;;7.40;99.90;;;;;;5056372;28;20067;-84
2022/12/26 11:26:46;;;;;;;13.40;1.52;;;7.30;99.90;;;;;;5100900;28;20044;-84
2022/12/26 11:29:24;;;;;;;5.70;1.05;;;7.30;99.90;;;;;;5124385;28;20039;-84
2022/12/26 11:32:00;;;;;;;5.30;0.85;;;7.20;99.90;;;;;;5110387;28;20075;-84
2022/12/26 11:34:46;;;;;;;5.93;0.90;;;7.10;99.90;;;;;;5109562;28;20040;-83
2022/12/26 11:37:33;;;;;;;8.48;1.00;;;7.00;99.90;;;;;;5108089;28;20036;-84
2022/12/26 11:40:00;;;;;;;5.53;1.52;;;6.90;99.90;;;;;;5109245;28;20048;-84
2022/12/26 11:42:27;;;;;;;8.60;1.15;;;6.80;99.90;;;;;;5109391;28;20059;-84
2022/12/26 11:44:56;;;;;;;5.28;1.05;;;6.80;99.90;;;;;;5092730;28;20040;-84
2022/12/26 11:47:28;;;;;;;11.95;1.10;;;6.70;99.90;;;;;;5098984;28;20098;-84
2022/12/26 11:50:08;;;;;;;8.45;1.27;;;6.70;99.90;;;;;;5105597;28;20114;-84
2022/12/26 11:52:50;;;;;;;6.18;1.08;;;6.70;99.90;;;;;;5105675;28;20082;-84
2022/12/26 11:55:23;;;;;;;7.15;0.98;;;6.70;99.90;;;;;;5088726;28;20056;-84
2022/12/26 11:58:05;;;;;;;8.90;1.20;;;6.70;99.90;;;;;;5096893;28;20403;-84
2022/12/26 12:00:38;;;;;;;5.68;1.10;;;6.70;99.90;;;;;;5109153;28;20381;-84
2022/12/26 12:03:17;;;;;;;7.20;1.30;;;6.70;99.90;;;;;;5108502;28;20047;-84
2022/12/26 12:06:02;;;;;;;6.85;1.10;;;6.70;99.90;;;;;;5109224;28;20085;-84
2022/12/26 12:08:48;;;;;;;7.85;1.00;;;6.70;99.90;;;;;;5107071;28;20051;-84
2022/12/26 12:11:33;;;;;;;3.20;1.00;;;6.70;99.90;;;;;;5108574;28;20131;-84
2022/12/26 12:14:03;;;;;;;10.80;1.20;;;6.70;99.90;;;;;;5110522;28;20043;-84
2022/12/26 12:16:55;;;;;;;6.88;1.23;;;6.70;99.90;;;;;;5129888;28;20056;-84
2022/12/26 12:19:27;;;;;;;5.40;1.30;;;6.70;99.90;;;;;;5095555;28;20033;-84
2022/12/26 12:22:18;;;;;;;6.05;1.60;;;6.60;99.90;;;;;;5092705;28;20451;-84
2022/12/26 12:25:09;;;;;;;6.78;1.00;;;6.60;99.90;;;;;;5108434;28;20102;-84
2022/12/26 12:27:42;;;;;;;7.88;1.20;;;6.60;99.90;;;;;;5093286;28;20044;-85
2022/12/26 12:30:19;;;;;;;10.52;1.58;;;6.60;99.90;;;;;;5092301;28;20051;-83
2022/12/26 12:33:24;;;;;;;7.80;1.38;;;6.70;99.90;;;;;;5092712;28;20044;-84
2022/12/26 12:36:16;;;;;;;7.40;1.38;;;6.60;99.90;;;;;;5092491;28;20127;-84
2022/12/26 12:39:16;;;;;;;7.30;1.10;;;6.60;99.90;;;;;;5115914;28;20040;-84
2022/12/26 12:42:05;;;;;;;7.50;1.17;;;6.60;99.90;;;;;;5098676;28;20124;-84
2022/12/26 12:45:04;;;;;;;11.80;1.58;;;6.60;99.90;;;;;;5109319;28;20044;-84
2022/12/26 12:47:52;;;;;;;7.32;1.30;;;6.60;99.90;;;;;;5078093;28;20139;-84
2022/12/26 12:50:36;;;;;;;6.07;1.73;;;6.70;99.90;;;;;;5091898;28;20511;-84
2022/12/26 12:53:21;;;;;;;7.18;1.50;;;6.70;99.90;;;;;;5092274;28;20044;-84
2022/12/26 12:56:04;;;;;;;7.68;1.45;;;6.60;99.90;;;;;;5092337;28;20057;-84
2022/12/26 12:59:12;;;;;;;4.88;1.17;;;6.70;99.90;;;;;;5108656;28;20507;-84
2022/12/26 13:01:43;;;;;;;8.23;1.17;;;6.70;99.90;;;;;;5108748;28;20041;-84
2022/12/26 13:04:23;;;;;;;10.13;1.17;;;6.60;99.90;;;;;;5091860;28;20748;-83
2022/12/26 13:06:58;;;;;;;12.75;1.70;;;6.60;99.90;;;;;;5092389;28;20042;-84
2022/12/26 13:09:41;;;;;;;7.38;1.30;;;6.60;99.90;;;;;;5091340;28;20086;-84
2022/12/26 13:12:15;;;;;;;5.18;1.27;;;6.60;99.90;;;;;;5091690;28;20068;-83
2022/12/26 13:14:49;;;;;;;8.75;1.20;;;6.60;99.90;;;;;;5108432;28;20033;-84
2022/12/26 13:17:25;;;;;;;12.52;1.90;;;6.50;99.90;;;;;;5091908;28;20557;-83
2022/12/26 13:20:29;;;;;;;4.60;1.50;;;6.40;99.90;;;;;;5091731;28;20091;-83
2022/12/26 13:26:01;;;;;;;9.20;1.55;;;6.30;99.90;;;;;;5107693;28;20067;-83
2022/12/26 13:28:31;;;;;;;4.43;1.65;;;6.30;99.90;;;;;;5091786;28;20044;-83
2022/12/26 13:30:58;;;;;;;13.52;1.70;;;6.30;99.90;;;;;;5091521;28;20106;-84
2022/12/26 13:33:26;;;;;;;8.23;1.48;;;6.30;99.90;;;;;;5085995;28;20036;-83
2022/12/26 13:35:59;;;;;;;9.88;1.77;;;6.30;99.90;;;;;;5095149;28;20044;-83
2022/12/26 13:38:55;;;;;;;8.07;1.75;;;6.40;99.90;;;;;;5128633;28;20040;-83
2022/12/26 13:44:18;;;;;;;6.00;1.20;;;6.30;99.90;;;;;;5105216;28;20462;-83
2022/12/26 13:46:44;;;;;;;9.77;1.75;;;6.30;99.90;;;;;;5111519;28;20086;-84
2022/12/26 13:49:37;;;;;;;12.40;1.65;;;6.20;99.90;;;;;;5128683;28;20112;-83
2022/12/26 13:52:10;;;;;;;14.70;2.47;;;6.20;99.90;;;;;;5111615;28;20032;-84
2022/12/26 13:54:46;;;;;;;16.60;2.05;;;6.20;99.90;;;;;;5103730;28;20591;-84
2022/12/26 13:57:31;;;;;;;9.35;1.65;;;6.20;99.90;;;;;;5107911;28;20085;-84
2022/12/26 14:00:08;;;;;;;12.40;2.17;;;6.10;99.90;;;;;;5091249;28;20040;-83
2022/12/26 14:02:50;;;;;;;8.45;1.67;;;6.10;99.90;;;;;;5091046;28;20086;-84
2022/12/26 14:05:35;;;;;;;13.93;1.80;;;6.10;99.90;;;;;;5100719;28;20141;-83
2022/12/26 14:08:15;;;;;;;13.25;2.42;;;6.10;99.90;;;;;;5111082;28;20496;-83
2022/12/26 14:10:57;;;;;;;11.88;2.40;;;6.00;99.90;;;;;;5127777;28;20044;-83
2022/12/26 14:13:56;;;;;;;10.80;1.58;;;6.00;99.90;;;;;;5110682;28;20412;-83
2022/12/26 14:16:36;;;;;;;12.15;1.85;;;6.00;99.90;;;;;;5097785;28;20040;-83
2022/12/26 14:19:31;;;;;;;12.48;1.92;;;6.00;99.90;;;;;;5127836;28;20075;-83
2022/12/26 14:22:23;;;;;;;10.32;2.60;;;6.00;99.90;;;;;;5127557;28;20508;-84
2022/12/26 14:25:18;;;;;;;10.18;1.75;;;6.00;99.90;;;;;;5072796;28;20044;-83
2022/12/26 14:28:22;;;;;;;8.48;1.75;;;5.90;99.90;;;;;;5107518;28;20048;-83
2022/12/26 14:31:03;;;;;;;9.98;2.05;;;5.80;99.90;;;;;;5090458;28;20040;-83
2022/12/26 14:33:55;;;;;;;8.05;1.85;;;5.80;99.90;;;;;;5090598;28;20044;-84
2022/12/26 14:36:34;;;;;;;5.53;1.50;;;5.70;99.90;;;;;;5115618;28;20085;-83
2022/12/26 14:39:27;;;;;;;9.85;1.50;;;5.70;99.90;;;;;;5110451;28;20457;-84
2022/12/26 14:44:56;;;;;;;6.35;1.20;;;5.70;99.90;;;;;;5127837;28;20044;-82
2022/12/26 14:47:37;;;;;;;12.70;2.13;;;5.50;99.90;;;;;;5115082;28;20492;-77
2022/12/26 14:50:31;;;;;;;12.48;2.17;;;5.50;99.90;;;;;;5106098;28;20128;-79
2022/12/26 14:53:23;;;;;;;10.65;2.33;;;5.50;99.90;;;;;;5113964;28;20468;-79
2022/12/26 14:56:00;;;;;;;17.92;3.85;;;5.40;99.90;;;;;;5114428;28;20040;-79
2022/12/26 14:58:46;;;;;;;8.38;1.90;;;5.40;99.90;;;;;;5122619;28;20561;-79
2022/12/26 15:01:16;;;;;;;11.65;2.17;;;5.40;99.90;;;;;;5106698;28;20476;-79
2022/12/26 15:04:08;;;;;;;14.07;2.15;;;5.30;99.90;;;;;;5112278;28;20561;-79
2022/12/26 15:07:12;;;;;;;14.07;3.15;;;5.30;99.90;;;;;;5101937;28;20064;-79
2022/12/26 15:10:00;;;;;;;9.95;2.03;;;5.20;99.90;;;;;;5115932;28;20044;-79
2022/12/26 15:12:48;;;;;;;10.27;2.00;;;5.20;99.90;;;;;;5109851;28;20039;-80
2022/12/26 15:16:06;;;;;;;10.43;1.92;;;5.20;99.90;;;;;;5129503;28;20084;-79
2022/12/26 15:18:57;;;;;;;16.33;1.98;;;5.10;99.90;;;;;;5041533;28;20057;-79
2022/12/26 15:21:51;;;;;;;13.35;2.08;;;5.10;99.90;;;;;;5108330;28;20507;-78
2022/12/26 15:24:58;;;;;;;11.25;2.83;;;5.10;99.90;;;;;;5125060;28;20384;-80
2022/12/26 15:27:43;;;;;;;11.27;1.80;;;5.00;99.90;;;;;;5095467;28;20126;-79
2022/12/26 15:30:10;;;;;;;8.55;2.17;;;5.00;99.90;;;;;;5100644;28;20057;-79